Time;durP1;ratioP1;P1;durP2;ratioP2;P2;SDS_P1;SDS_P2;PMS_P1;PMS_P2;Temp;Humidity;BMP_temperature;BMP_pressure;BME280_temperature;BME280_humidity;BME280_pressure;Samples;Min_cycle;Max_cycle;Signal;HPM_P1;HPM_P2
2023/08/10 00:02:16;;;;;;;2.35;1.00;;;20.90;70.20;;;;;;2588712;53;20984;-71
2023/08/10 00:04:42;;;;;;;3.78;0.90;;;20.80;70.10;;;;;;2338957;54;21859;-69
2023/08/10 00:07:11;;;;;;;2.03;0.90;;;20.80;70.20;;;;;;2564807;53;20957;-71
2023/08/10 00:09:37;;;;;;;1.90;0.70;;;20.90;70.30;;;;;;2342406;54;20924;-69
2023/08/10 00:12:08;;;;;;;2.08;0.80;;;20.90;70.30;;;;;;2588406;53;20978;-68
2023/08/10 00:14:34;;;;;;;3.85;0.82;;;20.90;70.30;;;;;;2341815;54;20987;-69
2023/08/10 00:17:01;;;;;;;2.03;0.93;;;20.90;70.30;;;;;;2588374;53;21075;-68
2023/08/10 00:19:27;;;;;;;2.10;1.08;;;20.90;70.40;;;;;;2341895;54;21059;-69
2023/08/10 00:21:53;;;;;;;2.10;1.00;;;20.90;70.40;;;;;;2341916;54;21001;-71
2023/08/10 00:24:20;;;;;;;2.78;1.20;;;20.90;70.40;;;;;;2587974;53;20905;-70
2023/08/10 00:26:46;;;;;;;2.15;0.90;;;20.90;70.40;;;;;;2318327;55;21018;-71
2023/08/10 00:29:13;;;;;;;2.00;0.95;;;20.90;70.50;;;;;;2341419;54;21004;-67
2023/08/10 00:31:39;;;;;;;2.10;1.10;;;20.90;70.30;;;;;;2588834;53;20924;-70
2023/08/10 00:34:06;;;;;;;1.90;0.80;;;20.90;70.30;;;;;;2342125;54;20953;-68
2023/08/10 00:36:32;;;;;;;2.12;1.00;;;21.00;70.40;;;;;;2342206;54;21060;-71
2023/08/10 00:38:59;;;;;;;2.35;1.00;;;20.90;70.30;;;;;;2342577;54;21016;-68
2023/08/10 00:41:25;;;;;;;2.47;1.10;;;21.00;70.40;;;;;;2588054;53;20969;-68
2023/08/10 00:43:51;;;;;;;2.78;0.98;;;20.90;70.40;;;;;;2341769;54;20980;-71
2023/08/10 00:46:18;;;;;;;3.12;1.20;;;20.90;70.40;;;;;;2587881;53;21020;-70
2023/08/10 00:48:44;;;;;;;1.67;0.73;;;21.00;70.60;;;;;;2341907;54;21063;-68
2023/08/10 00:51:12;;;;;;;1.80;0.88;;;20.90;70.50;;;;;;2342689;54;21020;-70
2023/08/10 00:53:38;;;;;;;2.37;1.12;;;20.90;70.50;;;;;;2341715;54;20972;-67
2023/08/10 00:56:06;;;;;;;2.40;1.02;;;21.00;70.50;;;;;;2573797;53;21101;-68
2023/08/10 00:58:32;;;;;;;2.40;1.02;;;20.90;70.40;;;;;;2566546;53;20928;-70
2023/08/10 01:01:01;;;;;;;2.85;1.10;;;20.90;70.50;;;;;;2342141;54;21406;-71
2023/08/10 01:03:28;;;;;;;2.12;0.90;;;21.00;71.40;;;;;;2588171;53;20933;-68
2023/08/10 01:06:16;;;;;;;2.10;1.00;;;20.90;70.60;;;;;;2329088;54;21483;-70
2023/08/10 01:11:44;;;;;;;2.17;0.90;;;20.90;70.20;;;;;;2335161;54;20956;-71
2023/08/10 01:14:25;;;;;;;1.98;0.80;;;21.00;70.40;;;;;;2588365;53;20988;-68
2023/08/10 01:16:52;;;;;;;2.37;0.95;;;21.00;70.20;;;;;;2587785;53;21393;-68
2023/08/10 01:19:36;;;;;;;3.25;0.90;;;21.00;70.60;;;;;;2341808;54;20921;-69
2023/08/10 01:22:30;;;;;;;2.50;0.85;;;20.90;70.30;;;;;;2342051;54;20992;-67
2023/08/10 01:25:06;;;;;;;2.58;1.00;;;20.90;70.40;;;;;;2341520;54;21004;-68
2023/08/10 01:27:34;;;;;;;2.50;1.20;;;20.90;70.10;;;;;;2588450;53;21009;-71
2023/08/10 01:30:00;;;;;;;2.20;0.93;;;20.90;70.50;;;;;;2576200;53;20999;-70
2023/08/10 01:32:29;;;;;;;2.92;1.00;;;20.90;70.60;;;;;;2324875;54;20994;-69
2023/08/10 01:35:05;;;;;;;2.15;0.90;;;20.80;70.50;;;;;;2341612;54;21425;-69
2023/08/10 01:37:33;;;;;;;1.98;0.82;;;20.80;70.50;;;;;;2588757;53;21004;-71
2023/08/10 01:39:59;;;;;;;2.00;0.90;;;20.90;70.70;;;;;;2341991;54;20944;-69
2023/08/10 01:42:26;;;;;;;2.50;1.00;;;20.80;70.70;;;;;;2589117;53;20966;-68
2023/08/10 01:44:52;;;;;;;2.95;1.33;;;20.90;70.90;;;;;;2327828;54;21063;-71
2023/08/10 01:48:48;;;;;;;2.67;1.05;;;20.80;70.70;;;;;;2314642;54;20952;-71
2023/08/10 01:51:16;;;;;;;2.25;1.05;;;20.80;70.40;;;;;;2547113;54;21479;-70
2023/08/10 01:53:42;;;;;;;3.10;1.20;;;20.80;70.80;;;;;;2310213;54;20961;-70
2023/08/10 01:56:08;;;;;;;5.50;1.35;;;20.90;70.90;;;;;;2549629;54;20987;-71
2023/08/10 01:58:35;;;;;;;2.80;1.30;;;20.90;71.00;;;;;;2310362;55;20963;-67
2023/08/10 02:01:01;;;;;;;3.03;1.35;;;20.80;70.90;;;;;;2309803;55;20932;-71
2023/08/10 02:03:28;;;;;;;3.78;1.10;;;20.80;70.90;;;;;;2283413;55;21007;-69
2023/08/10 02:05:54;;;;;;;3.95;1.30;;;20.80;70.90;;;;;;2309613;55;21850;-68
2023/08/10 02:08:20;;;;;;;2.25;0.88;;;20.80;71.00;;;;;;2313306;55;20931;-69
2023/08/10 02:10:46;;;;;;;2.83;1.20;;;20.70;70.90;;;;;;2280711;55;21300;-72
2023/08/10 02:13:13;;;;;;;2.28;0.85;;;20.80;71.00;;;;;;2319284;55;21450;-70
2023/08/10 02:15:42;;;;;;;2.75;1.17;;;20.80;70.90;;;;;;2341452;54;21036;-70
2023/08/10 02:18:14;;;;;;;2.10;1.00;;;20.80;71.00;;;;;;2587886;53;21865;-67
2023/08/10 02:20:41;;;;;;;2.28;0.93;;;20.80;71.00;;;;;;2321914;54;21776;-72
2023/08/10 02:23:07;;;;;;;2.25;0.90;;;20.80;70.90;;;;;;2585021;53;20972;-71
2023/08/10 02:25:34;;;;;;;4.15;1.33;;;20.70;70.70;;;;;;2341888;54;20988;-70
2023/08/10 02:28:00;;;;;;;2.40;1.20;;;20.70;70.60;;;;;;2342154;54;20964;-72
2023/08/10 02:30:29;;;;;;;2.47;1.10;;;20.70;70.50;;;;;;2556199;53;21002;-71
2023/08/10 02:32:55;;;;;;;2.50;1.17;;;20.70;70.50;;;;;;2588136;53;21418;-70
2023/08/10 02:35:22;;;;;;;2.37;1.17;;;20.60;70.40;;;;;;2342130;54;20913;-72
2023/08/10 02:37:50;;;;;;;2.10;1.00;;;20.60;70.40;;;;;;2588397;53;20994;-68
2023/08/10 02:40:16;;;;;;;3.12;1.20;;;20.60;70.40;;;;;;2341938;54;20916;-71
2023/08/10 02:42:46;;;;;;;3.33;1.55;;;20.60;70.50;;;;;;2588677;53;20936;-71
2023/08/10 02:45:18;;;;;;;3.35;1.10;;;20.50;70.40;;;;;;2342243;54;20932;-72
2023/08/10 02:47:45;;;;;;;2.58;1.20;;;20.50;70.30;;;;;;2342308;54;20925;-69
2023/08/10 02:50:11;;;;;;;3.40;1.10;;;20.50;70.50;;;;;;2588164;53;21048;-72
2023/08/10 02:52:38;;;;;;;3.15;1.30;;;20.50;70.60;;;;;;2588022;53;21061;-69
2023/08/10 02:55:05;;;;;;;1.92;1.02;;;20.50;70.60;;;;;;2341779;54;20940;-71
2023/08/10 02:57:32;;;;;;;2.50;0.80;;;20.40;70.50;;;;;;2587094;53;21008;-71
2023/08/10 03:00:00;;;;;;;2.15;1.00;;;20.40;70.40;;;;;;2587833;53;21477;-70
2023/08/10 03:02:28;;;;;;;1.73;0.80;;;20.40;70.40;;;;;;2563287;53;20979;-72
2023/08/10 03:04:54;;;;;;;3.00;1.10;;;20.40;70.20;;;;;;2581579;53;21380;-71
2023/08/10 03:07:21;;;;;;;3.08;1.10;;;20.40;70.10;;;;;;2342323;54;20952;-71
2023/08/10 03:09:50;;;;;;;1.92;1.00;;;20.30;70.10;;;;;;2588841;53;20978;-72
2023/08/10 03:12:16;;;;;;;2.12;0.90;;;20.20;70.00;;;;;;2582389;53;20970;-69
2023/08/10 03:14:44;;;;;;;2.42;0.90;;;20.20;70.00;;;;;;2313418;55;20955;-70
2023/08/10 03:17:10;;;;;;;2.28;1.00;;;20.20;69.90;;;;;;2569431;53;21009;-71
2023/08/10 03:19:36;;;;;;;2.80;0.98;;;20.20;70.00;;;;;;2588326;53;20965;-70
2023/08/10 03:22:03;;;;;;;2.05;0.90;;;20.10;69.90;;;;;;2342200;54;21642;-71
2023/08/10 03:24:31;;;;;;;2.10;1.00;;;20.10;69.90;;;;;;2343344;54;20950;-72
2023/08/10 03:26:57;;;;;;;2.42;1.20;;;20.10;70.00;;;;;;2341816;54;21028;-72
2023/08/10 03:29:25;;;;;;;2.37;1.20;;;20.00;69.90;;;;;;2565257;53;21036;-71
2023/08/10 03:31:51;;;;;;;2.62;0.95;;;20.00;69.90;;;;;;2551726;53;21328;-70
2023/08/10 03:34:17;;;;;;;2.45;1.00;;;19.90;69.90;;;;;;2588053;53;21004;-70
2023/08/10 03:36:44;;;;;;;2.55;0.95;;;19.90;70.00;;;;;;2588705;53;21078;-71
2023/08/10 03:39:10;;;;;;;2.78;0.90;;;19.80;69.90;;;;;;2588579;53;21846;-69
2023/08/10 03:41:36;;;;;;;2.33;1.08;;;19.80;70.00;;;;;;2588441;53;21481;-71
2023/08/10 03:44:03;;;;;;;1.80;0.90;;;19.80;70.00;;;;;;2588261;53;21002;-72
2023/08/10 03:46:29;;;;;;;2.17;1.10;;;19.80;70.00;;;;;;2588642;53;20940;-70
2023/08/10 03:48:56;;;;;;;1.77;0.65;;;19.80;70.00;;;;;;2587875;53;21008;-72
2023/08/10 03:51:22;;;;;;;1.75;0.82;;;19.70;69.90;;;;;;2342268;54;20957;-72
2023/08/10 03:53:48;;;;;;;2.30;0.80;;;19.70;70.00;;;;;;2588702;53;21688;-70
2023/08/10 03:56:17;;;;;;;2.10;0.90;;;19.60;69.90;;;;;;2566197;53;20946;-70
2023/08/10 03:58:43;;;;;;;2.80;0.93;;;19.60;69.80;;;;;;2577333;53;20968;-70
2023/08/10 04:01:09;;;;;;;3.37;1.00;;;19.60;69.70;;;;;;2342442;54;21771;-69
2023/08/10 04:03:36;;;;;;;2.60;1.05;;;19.60;70.40;;;;;;2588974;53;20953;-69
2023/08/10 04:06:04;;;;;;;2.83;1.20;;;19.50;69.70;;;;;;2556184;53;21520;-69
2023/08/10 04:08:34;;;;;;;2.17;1.08;;;19.50;69.90;;;;;;2588800;53;20945;-71
2023/08/10 04:11:04;;;;;;;2.30;1.00;;;19.40;69.80;;;;;;2342116;54;21286;-72
2023/08/10 04:13:30;;;;;;;1.92;0.88;;;19.40;69.90;;;;;;2342215;54;20932;-72
2023/08/10 04:15:57;;;;;;;2.17;0.90;;;19.30;69.80;;;;;;2588617;53;20941;-72
2023/08/10 04:18:24;;;;;;;2.97;0.95;;;19.40;70.00;;;;;;2588663;53;21001;-71
2023/08/10 04:20:51;;;;;;;2.30;1.00;;;19.30;69.80;;;;;;2342825;54;21028;-70
2023/08/10 04:23:19;;;;;;;2.35;1.20;;;19.30;69.80;;;;;;2342051;54;20913;-72
2023/08/10 04:25:45;;;;;;;2.92;1.10;;;19.30;69.80;;;;;;2588647;53;20972;-69
2023/08/10 04:28:11;;;;;;;2.92;1.12;;;19.20;69.70;;;;;;2341390;54;21032;-72
2023/08/10 04:30:38;;;;;;;2.15;1.15;;;19.20;69.80;;;;;;2341975;54;20960;-72
2023/08/10 04:33:04;;;;;;;2.37;1.00;;;19.20;69.80;;;;;;2342289;54;20940;-69
2023/08/10 04:35:31;;;;;;;2.45;1.00;;;19.10;69.80;;;;;;2588799;53;21485;-72
2023/08/10 04:37:58;;;;;;;2.83;0.98;;;19.10;69.80;;;;;;2342960;54;20985;-70
2023/08/10 04:40:24;;;;;;;2.17;1.00;;;19.10;69.80;;;;;;2588378;53;21014;-68
2023/08/10 04:42:51;;;;;;;2.10;0.95;;;19.00;69.80;;;;;;2549714;54;21398;-70
2023/08/10 04:45:17;;;;;;;2.60;1.30;;;19.00;69.90;;;;;;2310147;54;20931;-69
2023/08/10 04:47:44;;;;;;;2.10;1.10;;;19.00;70.00;;;;;;2549212;54;21022;-69
2023/08/10 04:50:11;;;;;;;2.53;1.20;;;19.00;70.10;;;;;;2549522;54;21036;-72
2023/08/10 04:52:39;;;;;;;2.28;1.10;;;19.00;70.10;;;;;;2549070;54;21006;-68
2023/08/10 04:55:06;;;;;;;2.62;1.20;;;19.00;70.10;;;;;;2548913;54;20979;-68
2023/08/10 04:57:32;;;;;;;1.90;0.90;;;18.90;70.10;;;;;;2310574;54;21017;-71
2023/08/10 04:59:59;;;;;;;2.12;1.00;;;18.90;70.10;;;;;;2310288;54;20943;-71
2023/08/10 05:02:25;;;;;;;2.08;1.05;;;18.90;70.10;;;;;;2549484;54;20999;-69
2023/08/10 05:04:52;;;;;;;2.40;1.23;;;18.90;70.10;;;;;;2549035;54;20975;-72
2023/08/10 05:07:18;;;;;;;2.10;0.90;;;18.90;70.20;;;;;;2311195;54;20987;-70
2023/08/10 05:09:45;;;;;;;2.37;1.08;;;18.80;70.20;;;;;;2549367;54;20923;-72
2023/08/10 05:12:21;;;;;;;2.50;1.00;;;18.80;70.30;;;;;;2549064;53;20912;-71
2023/08/10 05:14:48;;;;;;;2.17;1.10;;;18.80;70.20;;;;;;2549487;54;20979;-71
2023/08/10 05:17:14;;;;;;;2.45;1.20;;;18.80;70.30;;;;;;2549253;54;20903;-68
2023/08/10 05:19:40;;;;;;;1.95;1.00;;;18.80;70.30;;;;;;2319785;54;20991;-68
2023/08/10 05:22:10;;;;;;;2.37;1.08;;;18.80;71.10;;;;;;2321649;54;21483;-69
2023/08/10 05:24:37;;;;;;;2.67;1.20;;;18.80;70.40;;;;;;2338362;54;20989;-70
2023/08/10 05:27:04;;;;;;;2.00;1.10;;;18.80;70.40;;;;;;2587033;53;21007;-70
2023/08/10 05:29:30;;;;;;;2.47;1.12;;;18.80;70.60;;;;;;2317203;54;20916;-71
2023/08/10 05:31:57;;;;;;;3.95;1.40;;;18.80;70.60;;;;;;2342454;54;20968;-68
2023/08/10 05:34:23;;;;;;;3.05;1.35;;;18.80;70.70;;;;;;2342730;54;20933;-70
2023/08/10 05:36:52;;;;;;;2.67;1.40;;;18.80;70.70;;;;;;2343484;54;20940;-70
2023/08/10 05:39:21;;;;;;;2.83;1.70;;;18.80;70.70;;;;;;2583333;53;21034;-70
2023/08/10 05:41:48;;;;;;;3.25;1.90;;;18.80;71.00;;;;;;2560706;53;20981;-67
2023/08/10 05:44:15;;;;;;;5.37;3.08;;;18.80;71.00;;;;;;2587599;53;20937;-68
2023/08/10 05:46:41;;;;;;;6.10;3.80;;;18.80;71.00;;;;;;2341931;54;21020;-70
2023/08/10 05:49:11;;;;;;;5.37;3.33;;;18.80;71.10;;;;;;2587451;53;20969;-67
2023/08/10 05:51:38;;;;;;;4.72;2.90;;;18.80;71.20;;;;;;2342159;54;21013;-68
2023/08/10 05:54:05;;;;;;;4.32;2.53;;;18.80;71.30;;;;;;2587929;53;20940;-69
2023/08/10 05:56:31;;;;;;;4.12;2.12;;;18.90;71.40;;;;;;2341807;54;20960;-71
2023/08/10 05:58:58;;;;;;;3.05;1.60;;;18.90;71.50;;;;;;2571253;53;22081;-70
2023/08/10 06:01:24;;;;;;;3.25;1.35;;;18.90;71.70;;;;;;2556608;53;21026;-69
2023/08/10 06:03:51;;;;;;;3.20;1.62;;;18.90;71.60;;;;;;2570531;53;20925;-68
2023/08/10 06:06:17;;;;;;;3.67;1.62;;;19.00;71.80;;;;;;2342329;54;21806;-70
2023/08/10 06:08:44;;;;;;;3.87;1.80;;;19.00;71.90;;;;;;2559843;53;21443;-72
2023/08/10 06:11:13;;;;;;;3.83;1.92;;;19.00;71.90;;;;;;2584260;53;20901;-71
2023/08/10 06:13:43;;;;;;;4.28;2.20;;;19.10;72.00;;;;;;2588645;53;21044;-70
2023/08/10 06:16:11;;;;;;;3.22;2.10;;;19.10;72.10;;;;;;2319409;54;20959;-68
2023/08/10 06:18:37;;;;;;;6.43;2.08;;;19.10;72.20;;;;;;2587628;53;21055;-71
2023/08/10 06:21:06;;;;;;;4.37;1.83;;;19.20;72.30;;;;;;2587725;53;20992;-70
2023/08/10 06:23:36;;;;;;;3.22;1.73;;;19.20;72.40;;;;;;2341946;54;21158;-67
2023/08/10 06:26:05;;;;;;;3.10;1.80;;;19.30;72.70;;;;;;2341595;54;20952;-68
2023/08/10 06:28:32;;;;;;;2.87;1.50;;;19.30;72.80;;;;;;2342056;54;20981;-70
2023/08/10 06:30:59;;;;;;;2.80;1.25;;;19.40;73.00;;;;;;2588468;53;20985;-68
2023/08/10 06:33:28;;;;;;;3.00;1.50;;;19.40;73.10;;;;;;2588212;53;20992;-70
2023/08/10 06:35:56;;;;;;;5.55;1.90;;;19.50;73.20;;;;;;2587600;53;21083;-69
2023/08/10 06:38:22;;;;;;;2.95;1.70;;;19.60;73.40;;;;;;2586164;53;21008;-70
2023/08/10 06:40:50;;;;;;;2.87;1.75;;;19.60;73.40;;;;;;2342117;54;21099;-71
2023/08/10 06:43:16;;;;;;;2.87;1.40;;;19.70;73.50;;;;;;2312409;55;20967;-68
2023/08/10 06:45:46;;;;;;;2.53;1.30;;;19.70;73.60;;;;;;2330130;54;20953;-69
2023/08/10 06:48:12;;;;;;;4.50;1.45;;;19.80;73.50;;;;;;2342462;54;20936;-72
2023/08/10 06:50:43;;;;;;;2.50;1.50;;;19.90;73.70;;;;;;2588121;53;20985;-67
2023/08/10 06:53:11;;;;;;;3.10;1.30;;;19.90;73.50;;;;;;2342166;54;21016;-68
2023/08/10 06:55:38;;;;;;;2.37;1.20;;;20.00;73.70;;;;;;2588150;53;21004;-69
2023/08/10 06:58:05;;;;;;;3.33;1.60;;;20.10;73.80;;;;;;2587177;53;21210;-71
2023/08/10 07:00:31;;;;;;;3.65;1.50;;;20.10;73.80;;;;;;2341895;54;21040;-69
2023/08/10 07:02:59;;;;;;;2.35;1.20;;;20.20;73.90;;;;;;2588339;53;21723;-67
2023/08/10 07:05:26;;;;;;;3.95;1.60;;;20.30;74.00;;;;;;2342471;54;20917;-67
2023/08/10 07:07:52;;;;;;;2.85;1.50;;;20.30;74.00;;;;;;2588597;53;20957;-69
2023/08/10 07:10:19;;;;;;;2.60;1.20;;;20.40;74.10;;;;;;2588611;53;21057;-67
2023/08/10 07:12:45;;;;;;;2.30;1.40;;;20.50;74.30;;;;;;2337918;54;20955;-69
2023/08/10 07:15:12;;;;;;;2.80;1.30;;;20.50;74.20;;;;;;2324286;54;20956;-70
2023/08/10 07:17:38;;;;;;;2.70;1.40;;;20.60;75.00;;;;;;2587769;53;20957;-69
2023/08/10 07:20:06;;;;;;;3.08;1.55;;;20.70;74.40;;;;;;2586798;53;20945;-69
2023/08/10 07:22:33;;;;;;;2.35;1.25;;;20.80;74.40;;;;;;2587983;53;20929;-69
2023/08/10 07:25:08;;;;;;;4.00;1.42;;;20.80;74.40;;;;;;2588113;53;20917;-67
2023/08/10 07:27:34;;;;;;;3.00;1.35;;;20.90;74.50;;;;;;2587025;53;20961;-68
2023/08/10 07:30:03;;;;;;;2.40;1.20;;;21.00;74.50;;;;;;2329475;54;21669;-67
2023/08/10 07:32:31;;;;;;;3.10;1.40;;;21.10;74.60;;;;;;2329439;54;20909;-68
2023/08/10 07:34:57;;;;;;;2.25;1.30;;;21.20;74.60;;;;;;2549217;53;21003;-70
2023/08/10 07:37:26;;;;;;;4.80;1.50;;;21.30;74.70;;;;;;2549413;53;20963;-70
2023/08/10 07:39:53;;;;;;;2.72;1.20;;;21.40;74.50;;;;;;2310241;55;21786;-68
2023/08/10 07:42:19;;;;;;;2.28;1.17;;;21.40;74.70;;;;;;2549054;53;20959;-68
2023/08/10 07:44:46;;;;;;;5.70;1.90;;;21.50;74.80;;;;;;2555053;53;20947;-69
2023/08/10 07:47:13;;;;;;;5.20;1.87;;;21.60;74.70;;;;;;2550618;53;20940;-66
2023/08/10 07:49:45;;;;;;;2.87;1.60;;;21.70;74.70;;;;;;2571252;53;20952;-65
2023/08/10 07:52:12;;;;;;;2.80;1.40;;;21.80;74.70;;;;;;2556824;53;20923;-66
2023/08/10 07:54:39;;;;;;;2.90;1.35;;;21.80;74.80;;;;;;2573841;53;21782;-67
2023/08/10 07:57:05;;;;;;;2.45;1.30;;;21.90;74.90;;;;;;2342482;54;20937;-70
2023/08/10 07:59:32;;;;;;;2.62;1.20;;;22.00;74.90;;;;;;2565967;53;20950;-68
2023/08/10 08:01:59;;;;;;;3.05;1.30;;;22.10;75.10;;;;;;2334766;54;20997;-69
2023/08/10 08:04:26;;;;;;;3.00;1.40;;;22.20;75.10;;;;;;2586956;53;20932;-69
2023/08/10 08:06:52;;;;;;;3.17;1.50;;;22.30;75.20;;;;;;2342424;54;21476;-66
2023/08/10 08:09:22;;;;;;;2.70;1.60;;;22.40;75.20;;;;;;2342382;54;20929;-66
2023/08/10 08:11:49;;;;;;;4.07;1.30;;;22.50;75.20;;;;;;2561021;53;20982;-67
2023/08/10 08:14:15;;;;;;;2.50;1.35;;;22.60;75.20;;;;;;2333461;55;21057;-70
2023/08/10 08:16:43;;;;;;;2.53;1.15;;;22.70;75.30;;;;;;2323736;54;21000;-66
2023/08/10 08:19:09;;;;;;;2.90;1.42;;;22.80;75.20;;;;;;2342448;54;20944;-66
2023/08/10 08:21:37;;;;;;;2.37;1.27;;;22.90;75.10;;;;;;2588241;53;20959;-66
2023/08/10 08:24:04;;;;;;;3.12;1.48;;;23.00;74.90;;;;;;2557573;53;20962;-66
2023/08/10 08:26:32;;;;;;;2.62;1.50;;;23.10;74.90;;;;;;2573075;53;21511;-66
2023/08/10 08:28:58;;;;;;;3.97;1.55;;;23.10;74.80;;;;;;2327210;54;20968;-66
2023/08/10 08:31:26;;;;;;;3.58;1.50;;;23.20;74.70;;;;;;2342386;54;20913;-70
2023/08/10 08:33:53;;;;;;;2.87;1.67;;;23.30;74.70;;;;;;2342338;54;21012;-67
2023/08/10 08:36:20;;;;;;;2.45;1.25;;;23.40;74.60;;;;;;2343793;54;20957;-66
2023/08/10 08:38:46;;;;;;;3.05;1.50;;;23.50;74.60;;;;;;2557497;53;20959;-67
2023/08/10 08:41:16;;;;;;;3.10;1.70;;;23.50;74.50;;;;;;2588810;53;20984;-68
2023/08/10 08:43:43;;;;;;;6.35;1.98;;;23.60;74.40;;;;;;2588593;53;21894;-67
2023/08/10 08:46:09;;;;;;;2.87;1.60;;;23.70;74.70;;;;;;2588133;53;21053;-67
2023/08/10 08:48:38;;;;;;;3.45;1.65;;;23.80;74.70;;;;;;2588142;53;21061;-67
2023/08/10 08:51:05;;;;;;;3.00;1.50;;;23.80;74.60;;;;;;2589172;53;21012;-67
2023/08/10 08:53:32;;;;;;;3.00;1.60;;;23.90;74.70;;;;;;2575223;53;21058;-68
2023/08/10 08:55:58;;;;;;;3.72;1.40;;;24.00;74.70;;;;;;2326670;54;20961;-67
2023/08/10 08:58:24;;;;;;;2.60;1.50;;;24.10;74.70;;;;;;2563890;53;1339064;-66
2023/08/10 09:00:54;;;;;;;3.28;1.37;;;24.10;74.50;;;;;;2342382;54;20921;-68
2023/08/10 09:03:24;;;;;;;2.42;1.30;;;24.20;74.10;;;;;;2588454;53;20936;-68
2023/08/10 09:05:51;;;;;;;2.17;1.30;;;24.30;74.20;;;;;;2342560;54;21500;-67
2023/08/10 09:08:19;;;;;;;3.00;1.50;;;24.40;74.10;;;;;;2588680;53;20905;-67
2023/08/10 09:10:46;;;;;;;2.90;1.40;;;24.40;73.80;;;;;;2588115;53;20920;-67
2023/08/10 09:13:15;;;;;;;1.87;0.93;;;24.50;73.70;;;;;;2588057;53;20921;-67
2023/08/10 09:15:42;;;;;;;2.17;1.15;;;24.60;73.60;;;;;;2583414;53;21564;-67
2023/08/10 09:18:10;;;;;;;2.47;1.20;;;24.60;73.50;;;;;;2341398;54;20952;-65
2023/08/10 09:20:38;;;;;;;2.30;1.00;;;24.70;73.50;;;;;;2344073;54;20956;-66
2023/08/10 09:23:05;;;;;;;2.17;1.10;;;24.80;73.20;;;;;;2341583;54;21008;-68
2023/08/10 09:25:37;;;;;;;2.78;1.35;;;24.80;73.00;;;;;;2328418;54;20962;-68
2023/08/10 09:28:08;;;;;;;2.75;1.20;;;24.90;72.70;;;;;;2319719;55;20930;-66
2023/08/10 09:30:35;;;;;;;2.62;1.23;;;24.90;72.60;;;;;;2577842;53;21004;-67
2023/08/10 09:33:04;;;;;;;2.00;1.10;;;25.00;72.90;;;;;;2554597;53;20982;-68
2023/08/10 09:35:31;;;;;;;2.35;1.20;;;25.10;72.40;;;;;;2341539;54;21041;-68
2023/08/10 09:38:04;;;;;;;2.58;1.20;;;25.10;72.60;;;;;;2588157;53;21944;-67
2023/08/10 09:40:32;;;;;;;2.25;1.10;;;25.20;72.40;;;;;;2588147;53;20922;-68
2023/08/10 09:43:00;;;;;;;2.50;1.20;;;25.30;72.40;;;;;;2341870;54;20968;-68
2023/08/10 09:45:27;;;;;;;2.40;1.25;;;25.30;72.20;;;;;;2586460;53;20917;-67
2023/08/10 09:47:54;;;;;;;2.97;1.35;;;25.30;72.10;;;;;;2556352;53;20945;-68
2023/08/10 09:50:21;;;;;;;2.25;1.10;;;25.40;71.90;;;;;;2588121;53;21001;-68
2023/08/10 09:52:49;;;;;;;2.42;1.20;;;25.40;71.80;;;;;;2587498;53;20968;-67
2023/08/10 09:55:15;;;;;;;2.50;1.23;;;25.50;71.80;;;;;;2308981;54;20967;-71
2023/08/10 09:57:47;;;;;;;2.20;1.10;;;25.50;71.60;;;;;;2304184;54;20927;-68
2023/08/10 10:00:22;;;;;;;2.37;1.17;;;25.60;71.70;;;;;;2310823;55;20983;-66
2023/08/10 10:02:48;;;;;;;2.53;1.20;;;25.60;71.70;;;;;;2310340;54;21508;-67
2023/08/10 10:05:17;;;;;;;2.83;1.12;;;25.70;71.80;;;;;;2337002;54;21044;-68
2023/08/10 10:07:48;;;;;;;2.60;1.15;;;25.70;71.40;;;;;;2581994;53;20949;-69
2023/08/10 10:10:15;;;;;;;2.42;1.08;;;25.80;71.30;;;;;;2581498;53;20937;-67
2023/08/10 10:12:45;;;;;;;2.33;0.95;;;25.80;71.30;;;;;;2555196;53;20915;-68
2023/08/10 10:15:11;;;;;;;2.10;0.95;;;25.90;71.30;;;;;;2326890;54;21041;-69
2023/08/10 10:17:40;;;;;;;2.10;1.08;;;25.90;71.10;;;;;;2581378;53;20953;-66
2023/08/10 10:20:11;;;;;;;2.58;1.20;;;26.00;70.80;;;;;;2336846;54;21683;-69
2023/08/10 10:22:37;;;;;;;2.40;1.12;;;26.00;70.50;;;;;;2321900;54;20987;-66
2023/08/10 10:25:05;;;;;;;2.42;1.10;;;26.10;70.60;;;;;;2569040;53;20949;-69
2023/08/10 10:27:40;;;;;;;2.03;1.10;;;26.10;70.50;;;;;;2582029;53;20980;-70
2023/08/10 10:30:16;;;;;;;2.47;0.90;;;26.20;69.60;;;;;;2576616;53;21430;-67
2023/08/10 10:32:44;;;;;;;2.40;1.17;;;26.20;69.50;;;;;;2336684;54;21434;-67
2023/08/10 10:35:13;;;;;;;2.08;1.08;;;26.30;70.10;;;;;;2581713;53;21013;-67
2023/08/10 10:37:40;;;;;;;2.30;1.02;;;26.30;70.10;;;;;;2581147;53;20960;-69
2023/08/10 10:40:18;;;;;;;2.10;1.08;;;26.40;70.00;;;;;;2335981;54;20973;-67
2023/08/10 10:43:04;;;;;;;2.00;0.90;;;26.40;68.80;;;;;;2334822;54;21340;-67
2023/08/10 10:45:43;;;;;;;1.90;1.00;;;26.50;68.30;;;;;;2316337;55;21005;-68
2023/08/10 10:48:11;;;;;;;3.33;0.93;;;26.50;69.50;;;;;;2337088;54;20996;-67
2023/08/10 10:50:37;;;;;;;2.20;1.02;;;26.60;69.60;;;;;;2336566;54;21501;-71
2023/08/10 10:53:13;;;;;;;2.80;1.20;;;26.60;69.50;;;;;;2581317;53;21012;-67
2023/08/10 10:55:44;;;;;;;1.95;1.10;;;26.70;68.50;;;;;;2581178;53;21501;-67
2023/08/10 10:58:12;;;;;;;2.20;0.90;;;26.70;68.70;;;;;;2336962;54;21494;-67
2023/08/10 11:00:38;;;;;;;2.10;0.82;;;26.80;69.30;;;;;;2336786;54;20960;-66
2023/08/10 11:03:06;;;;;;;1.80;0.80;;;26.80;69.20;;;;;;2336816;54;21067;-69
2023/08/10 11:05:33;;;;;;;2.58;1.12;;;26.80;69.20;;;;;;2581653;53;20980;-68
2023/08/10 11:08:06;;;;;;;2.65;1.10;;;26.80;69.00;;;;;;2336799;54;21767;-67
2023/08/10 11:10:36;;;;;;;2.28;1.10;;;26.90;69.00;;;;;;2340533;54;20945;-67
2023/08/10 11:13:04;;;;;;;2.20;1.10;;;27.00;68.80;;;;;;2581614;53;21954;-70
2023/08/10 11:15:31;;;;;;;4.05;1.30;;;27.00;68.70;;;;;;2317147;54;20934;-70
2023/08/10 11:17:57;;;;;;;1.92;0.95;;;27.00;68.70;;;;;;2573359;53;21078;-67
2023/08/10 11:20:25;;;;;;;2.20;1.10;;;27.10;68.70;;;;;;2336856;54;21003;-68
2023/08/10 11:22:52;;;;;;;2.10;1.00;;;27.10;68.60;;;;;;2309932;55;21417;-69
2023/08/10 11:25:25;;;;;;;2.15;1.08;;;27.20;68.50;;;;;;2549350;54;20936;-66
2023/08/10 11:27:52;;;;;;;2.28;1.17;;;27.20;67.90;;;;;;2310346;54;20963;-68
2023/08/10 11:30:20;;;;;;;2.42;1.10;;;27.30;68.50;;;;;;2309516;54;21832;-67
2023/08/10 11:32:48;;;;;;;2.30;1.10;;;27.30;68.40;;;;;;2548269;54;21369;-67
2023/08/10 11:35:17;;;;;;;2.00;0.88;;;27.40;68.40;;;;;;2540421;54;20936;-67
2023/08/10 11:37:43;;;;;;;2.40;1.05;;;27.40;68.00;;;;;;2310527;54;21012;-68
2023/08/10 11:40:15;;;;;;;2.40;1.25;;;27.40;68.10;;;;;;2309882;54;20951;-66
2023/08/10 11:42:47;;;;;;;2.30;1.08;;;27.50;67.70;;;;;;2310831;54;20995;-70
2023/08/10 11:45:19;;;;;;;2.62;1.27;;;27.50;67.70;;;;;;2548951;54;20963;-70
2023/08/10 11:47:57;;;;;;;1.98;1.00;;;27.60;67.70;;;;;;2548777;54;21425;-67
2023/08/10 11:50:31;;;;;;;2.17;1.00;;;27.60;67.70;;;;;;2311144;54;21007;-68
2023/08/10 11:53:32;;;;;;;2.55;1.23;;;27.70;67.80;;;;;;2309988;54;21614;-70
2023/08/10 11:55:59;;;;;;;2.40;1.20;;;27.70;66.70;;;;;;2310128;54;20968;-67
2023/08/10 11:58:32;;;;;;;2.40;1.02;;;27.80;67.90;;;;;;2309872;54;20953;-68
2023/08/10 12:01:02;;;;;;;2.00;1.00;;;27.80;66.70;;;;;;2310352;54;21555;-67
2023/08/10 12:03:29;;;;;;;2.97;1.12;;;27.80;67.30;;;;;;2310392;55;21031;-68
2023/08/10 12:06:04;;;;;;;2.37;1.13;;;27.90;67.60;;;;;;2310771;55;20996;-68
2023/08/10 12:08:32;;;;;;;2.12;1.00;;;28.00;67.40;;;;;;2549786;53;20916;-66
2023/08/10 12:11:13;;;;;;;2.20;1.10;;;28.00;67.30;;;;;;2310186;55;21017;-69
2023/08/10 12:13:49;;;;;;;2.35;1.12;;;28.00;66.60;;;;;;2330601;54;20929;-68
2023/08/10 12:16:18;;;;;;;3.55;1.17;;;28.10;65.90;;;;;;2341844;54;20945;-67
2023/08/10 12:18:45;;;;;;;2.08;1.12;;;28.10;67.00;;;;;;2587712;53;21012;-70
2023/08/10 12:21:12;;;;;;;2.55;1.10;;;28.20;66.90;;;;;;2341985;54;21889;-69
2023/08/10 12:23:41;;;;;;;2.20;1.10;;;28.20;66.60;;;;;;2576995;53;21090;-69
2023/08/10 12:26:08;;;;;;;2.35;1.15;;;28.20;66.80;;;;;;2565773;53;21453;-68
2023/08/10 12:28:34;;;;;;;2.60;1.02;;;28.30;66.80;;;;;;2341396;54;20956;-71
2023/08/10 12:31:06;;;;;;;1.83;0.82;;;28.40;66.70;;;;;;2338983;54;20955;-67
2023/08/10 12:33:33;;;;;;;2.30;1.00;;;28.40;65.40;;;;;;2563677;53;21032;-67
2023/08/10 12:35:59;;;;;;;2.10;1.10;;;28.50;66.20;;;;;;2342231;54;21488;-67
2023/08/10 12:38:26;;;;;;;2.50;1.12;;;28.50;66.10;;;;;;2341732;54;21009;-66
2023/08/10 12:40:52;;;;;;;2.22;1.10;;;28.50;65.90;;;;;;2587524;53;20964;-66
2023/08/10 12:43:21;;;;;;;2.47;1.15;;;28.60;65.70;;;;;;2342028;54;21024;-68
2023/08/10 12:45:48;;;;;;;2.30;1.10;;;28.60;65.60;;;;;;2588198;53;20941;-67
2023/08/10 12:48:14;;;;;;;2.42;1.10;;;28.60;65.30;;;;;;2341477;54;20949;-67
2023/08/10 12:50:40;;;;;;;2.72;1.00;;;28.70;65.20;;;;;;2341750;54;21012;-68
2023/08/10 12:53:08;;;;;;;2.22;1.05;;;28.70;64.90;;;;;;2341335;54;21406;-68
2023/08/10 12:55:34;;;;;;;2.12;1.02;;;28.80;64.80;;;;;;2319557;54;20994;-67
2023/08/10 12:58:01;;;;;;;2.42;1.08;;;28.80;64.50;;;;;;2587518;53;20944;-67